メインページ
METAR-TAF:

METAR-TAF

空港 :

サントペコア国際空港

ルーガンビル, エスピリトゥサント島, バヌアツ

緯度: 15-31S, 経度: 167-13E, 海抜: 41m

現時点の気象観測

当レポートは47分前の05:00(UTC)に作成
東/北東の風 4kt
気温 30°C
湿度 70%
気圧 1008 hPa
視程10km以上
高度2500ftの雲はほとんどない
高度4500ftの雲は散在している

METAR: NVSS 210500Z 06004KT 9999 FEW025 SCT045 30/24 Q1008

時間: 16:47 (05:47 UTC)

予報

当レポートは1時間17分前の04:30(UTC)に作成
予報は21日の 06時(UTC)から 22日の 06時(UTC)まで有効
東/南東の風 5kt
視程: 9000m
高度2000ftの雲は散在している
高度10000ftの千切れ雲あり
高度1800ftの千切れ雲あり
弱いにわか雨

TAF: NVSS 210430Z 2106/2206 12005KT 9999 SCT020 BKN100 INTER 2106/2112 9000 -SHRA BKN018

4,000以上の空港の気象観測と天気予報(METAR報とTAF報)

利用可能な観測所は地図上に黄色い丸と赤い丸で示す。

丸の上にカーソルを重ねると観測所名を参照できる。

次にクリックすると気象観測と天気予報を参照できる。

マップの切り替え:黒色「×」印の緑ボタンをクリックして拡大、「-」印の緑ボタンをクリックして縮小、緑色の三角印をクリックして隣りの地図に切り替え


METAR-TAF: